createdAt,value
2022-10-25T00:01:58.920Z,3.81
2022-10-25T00:07:23.346Z,3.70
2022-10-25T00:12:47.976Z,3.51
2022-10-25T00:18:10.465Z,3.48
2022-10-25T00:23:44.288Z,3.47
2022-10-25T00:29:06.778Z,3.50
2022-10-25T00:34:31.776Z,3.48
2022-10-25T00:39:54.007Z,3.36
2022-10-25T00:45:22.868Z,3.31
2022-10-25T00:50:55.364Z,2.92
2022-10-25T00:56:21.766Z,2.67
2022-10-25T01:01:44.381Z,2.56
2022-10-25T01:07:06.318Z,2.50
2022-10-25T01:12:28.034Z,2.28
2022-10-25T01:18:23.578Z,2.24
2022-10-25T01:24:03.937Z,2.18
2022-10-25T01:29:37.986Z,2.00
2022-10-25T01:35:08.195Z,1.91
2022-10-25T01:40:45.095Z,1.78
2022-10-25T01:46:26.927Z,1.54
2022-10-25T01:51:48.635Z,1.47
2022-10-25T01:57:32.928Z,1.44
2022-10-25T02:03:00.473Z,1.33
2022-10-25T02:08:31.563Z,1.10
2022-10-25T02:14:22.371Z,1.13
2022-10-25T02:19:58.236Z,1.03
2022-10-25T02:25:21.939Z,0.98
2022-10-25T02:30:45.550Z,0.92
2022-10-25T02:36:08.835Z,1.05
2022-10-25T02:41:31.304Z,1.03
2022-10-25T02:46:53.521Z,0.92
2022-10-25T02:52:23.925Z,0.89
2022-10-25T02:57:45.664Z,0.70
2022-10-25T03:03:07.605Z,0.69
2022-10-25T03:08:30.126Z,0.61
2022-10-25T03:13:52.024Z,0.65
2022-10-25T03:19:14.224Z,0.49
2022-10-25T03:24:36.124Z,0.46
2022-10-25T03:29:58.085Z,0.40
2022-10-25T03:35:19.885Z,0.28
2022-10-25T03:40:42.863Z,0.25
2022-10-25T03:46:04.845Z,0.47
2022-10-25T03:51:27.174Z,0.70
2022-10-25T03:56:49.024Z,0.84
2022-10-25T04:02:14.731Z,0.83
2022-10-25T04:07:36.905Z,0.92
2022-10-25T04:12:59.406Z,0.94
2022-10-25T04:18:21.465Z,1.00
2022-10-25T04:23:43.275Z,1.07
2022-10-25T04:29:06.973Z,1.14
2022-10-25T04:34:34.696Z,1.00
2022-10-25T04:40:11.664Z,1.26
2022-10-25T04:51:26.431Z,1.41
2022-10-25T04:56:49.044Z,1.70
2022-10-25T05:02:11.615Z,1.74
2022-10-25T05:07:33.715Z,1.80
2022-10-25T05:12:56.484Z,1.68
2022-10-25T05:18:18.434Z,1.58
2022-10-25T05:23:40.755Z,1.68
2022-10-25T05:29:04.524Z,1.77
2022-10-25T05:34:28.725Z,1.73
2022-10-25T05:39:50.664Z,1.73
2022-10-25T05:45:12.868Z,1.75
2022-10-25T05:50:34.782Z,1.95
2022-10-25T05:56:02.876Z,1.82
2022-10-25T06:01:51.227Z,1.97
2022-10-25T06:07:59.646Z,2.17
2022-10-25T06:13:32.173Z,2.32
2022-10-25T06:18:56.963Z,2.20
2022-10-25T06:24:19.684Z,2.25
2022-10-25T06:53:15.146Z,2.70
2022-10-25T06:58:38.322Z,2.90
2022-10-25T07:04:04.239Z,2.95
2022-10-25T07:09:26.802Z,3.11
2022-10-25T07:14:51.101Z,3.15
2022-10-25T07:20:13.525Z,3.17
2022-10-25T07:25:35.537Z,3.29
2022-10-25T07:30:57.683Z,3.39
2022-10-25T07:36:20.645Z,3.52
2022-10-25T07:41:42.784Z,3.65
2022-10-25T07:47:05.183Z,3.55
2022-10-25T07:52:42.856Z,3.71
2022-10-25T07:58:08.595Z,3.63
2022-10-25T08:03:31.065Z,3.60
2022-10-25T08:08:53.694Z,3.79
2022-10-25T08:14:15.503Z,3.77
2022-10-25T08:19:37.926Z,3.89
2022-10-25T08:24:59.755Z,3.98
2022-10-25T08:30:22.075Z,3.97
2022-10-25T08:35:43.758Z,3.82
2022-10-25T08:41:26.884Z,3.77
2022-10-25T08:46:58.024Z,3.68
2022-10-25T08:52:38.333Z,3.63
2022-10-25T08:58:03.425Z,3.44
2022-10-25T09:03:27.654Z,3.44
2022-10-25T09:08:55.954Z,3.63
2022-10-25T09:14:50.185Z,3.61
2022-10-25T09:20:16.384Z,3.68
2022-10-25T09:26:25.574Z,3.61
2022-10-25T09:31:53.198Z,3.57
2022-10-25T09:37:21.006Z,3.64
2022-10-25T09:42:59.571Z,3.72
2022-10-25T09:48:42.040Z,3.51
2022-10-25T09:54:18.651Z,3.58
2022-10-25T09:59:40.889Z,3.61
2022-10-25T10:05:02.982Z,3.63
2022-10-25T10:10:34.892Z,3.68
2022-10-25T10:16:06.929Z,3.73
2022-10-25T10:21:43.943Z,3.63
2022-10-25T10:27:27.940Z,3.63
2022-10-25T10:32:57.477Z,3.59
2022-10-25T10:38:30.886Z,3.63
2022-10-25T10:44:07.626Z,3.57
2022-10-25T10:49:39.245Z,3.58
2022-10-25T10:55:23.972Z,3.36
2022-10-25T11:01:31.488Z,3.56
2022-10-25T11:07:24.532Z,3.57
2022-10-25T11:13:14.202Z,3.58
2022-10-25T11:19:02.392Z,3.35
2022-10-25T11:25:06.560Z,3.55
2022-10-25T11:36:56.265Z,3.61
2022-10-25T11:49:38.816Z,3.63
2022-10-25T11:55:39.065Z,3.70
2022-10-25T12:01:31.590Z,3.75
2022-10-25T12:07:04.124Z,3.70
2022-10-25T12:12:50.217Z,3.81
2022-10-25T12:18:18.651Z,3.75
2022-10-25T12:23:49.755Z,3.76
2022-10-25T12:29:20.921Z,3.71
2022-10-25T12:34:50.654Z,3.66
2022-10-25T12:40:18.907Z,3.73
2022-10-25T12:45:58.384Z,3.72
2022-10-25T12:51:25.614Z,3.71
2022-10-25T12:57:01.644Z,3.59
2022-10-25T13:02:40.236Z,3.43
2022-10-25T13:08:09.284Z,3.47
2022-10-25T13:13:39.715Z,3.45
2022-10-25T13:19:53.097Z,3.48
2022-10-25T13:25:14.234Z,3.48
2022-10-25T13:30:38.895Z,3.32
2022-10-25T13:36:03.636Z,3.19
2022-10-25T13:41:46.085Z,3.18
2022-10-25T13:47:47.284Z,3.19
2022-10-25T13:53:34.963Z,3.33
2022-10-25T13:58:58.666Z,3.28
2022-10-25T14:04:23.013Z,3.13
2022-10-25T14:09:48.005Z,2.98
2022-10-25T14:15:18.963Z,2.93
2022-10-25T14:20:44.905Z,2.99
2022-10-25T14:26:19.694Z,2.91
2022-10-25T14:31:41.846Z,2.87
2022-10-25T14:37:03.624Z,2.82
2022-10-25T14:42:26.054Z,2.75
2022-10-25T14:47:48.151Z,2.78
2022-10-25T14:53:18.175Z,2.84
2022-10-25T14:58:45.073Z,2.91
2022-10-25T15:04:07.625Z,2.76
2022-10-25T15:09:42.364Z,2.76
2022-10-25T15:15:37.117Z,2.78
2022-10-25T15:21:19.194Z,2.90
2022-10-25T15:26:59.034Z,2.68
2022-10-25T15:32:31.425Z,2.61
2022-10-25T15:37:53.934Z,2.81
2022-10-25T15:43:16.563Z,2.83
2022-10-25T15:48:43.524Z,2.66
2022-10-25T15:54:06.024Z,2.83
2022-10-25T15:59:27.722Z,2.68
2022-10-25T16:04:50.362Z,2.63
2022-10-25T16:10:13.315Z,2.75
2022-10-25T16:15:35.275Z,2.74
2022-10-25T16:20:59.717Z,2.86
2022-10-25T16:26:37.202Z,2.73
2022-10-25T16:31:59.177Z,2.61
2022-10-25T16:37:21.694Z,2.55
2022-10-25T16:42:43.824Z,2.61
2022-10-25T16:48:06.500Z,2.66
2022-10-25T16:53:30.572Z,2.62
2022-10-25T16:58:58.747Z,2.45
2022-10-25T17:04:23.996Z,2.51
2022-10-25T17:09:46.694Z,2.61
2022-10-25T17:15:20.818Z,2.75
2022-10-25T17:20:46.516Z,2.62
2022-10-25T17:26:12.358Z,2.52
2022-10-25T17:31:36.610Z,2.61
2022-10-25T17:37:00.784Z,2.54
2022-10-25T17:42:26.453Z,2.67
2022-10-25T17:47:52.394Z,2.54
2022-10-25T17:53:17.293Z,2.53
2022-10-25T17:58:45.282Z,2.57
2022-10-25T18:04:07.209Z,2.62
2022-10-25T18:09:29.040Z,2.53
2022-10-25T18:14:55.630Z,2.37
2022-10-25T18:20:17.853Z,2.32
2022-10-25T18:25:40.194Z,2.37
2022-10-25T18:31:13.615Z,2.29
2022-10-25T18:36:35.206Z,2.23
2022-10-25T18:41:58.702Z,2.15
2022-10-25T18:47:20.675Z,2.14
2022-10-25T18:52:42.720Z,2.34
2022-10-25T18:58:04.456Z,2.34
2022-10-25T19:03:26.341Z,2.28
2022-10-25T19:08:49.954Z,2.22
2022-10-25T19:14:11.515Z,2.24
2022-10-25T19:19:33.655Z,2.20
2022-10-25T19:24:55.772Z,2.07
2022-10-25T19:30:17.999Z,2.16
2022-10-25T19:35:39.926Z,2.24
2022-10-25T19:41:03.857Z,2.40
2022-10-25T19:46:26.019Z,2.46
2022-10-25T19:51:48.116Z,2.43
2022-10-25T19:57:10.726Z,2.15
2022-10-25T20:02:33.164Z,2.13
2022-10-25T20:07:55.386Z,2.04
2022-10-25T20:13:18.315Z,2.13
2022-10-25T20:18:42.116Z,2.11
2022-10-25T20:24:11.063Z,1.98
2022-10-25T20:29:33.655Z,2.11
2022-10-25T20:34:56.097Z,2.11
2022-10-25T20:40:21.355Z,1.96
2022-10-25T20:45:46.356Z,2.18
2022-10-25T20:51:11.374Z,2.08
2022-10-25T20:56:37.544Z,1.98
2022-10-25T21:01:59.767Z,2.11
2022-10-25T21:07:21.796Z,2.10
2022-10-25T21:12:43.557Z,1.95
2022-10-25T21:18:05.575Z,1.97
2022-10-25T21:23:27.985Z,1.74
2022-10-25T21:28:49.616Z,1.77
2022-10-25T21:34:11.699Z,1.85
2022-10-25T21:39:33.555Z,1.92
2022-10-25T21:44:55.503Z,1.81
2022-10-25T21:50:20.037Z,1.86
2022-10-25T21:55:41.887Z,1.88
2022-10-25T22:01:08.212Z,1.94
2022-10-25T22:06:30.953Z,1.90
2022-10-25T22:11:53.174Z,1.95
2022-10-25T22:17:14.804Z,1.96
2022-10-25T22:22:37.119Z,2.00
2022-10-25T22:27:58.806Z,2.08
2022-10-25T22:33:20.945Z,1.99
2022-10-25T22:38:43.636Z,2.10
2022-10-25T22:44:05.605Z,2.06
2022-10-25T22:49:27.436Z,1.97
2022-10-25T22:54:52.236Z,1.76
2022-10-25T23:00:18.545Z,1.68
2022-10-25T23:05:42.294Z,1.59
2022-10-25T23:11:08.768Z,1.76
2022-10-25T23:16:31.019Z,1.79
2022-10-25T23:21:52.977Z,1.68
2022-10-25T23:27:15.088Z,1.68
2022-10-25T23:32:36.991Z,1.72
2022-10-25T23:37:59.676Z,1.59
2022-10-25T23:43:21.666Z,1.92
2022-10-25T23:48:43.817Z,1.88
2022-10-25T23:54:05.655Z,2.02
2022-10-25T23:59:27.289Z,2.00
